Flight Track Log - Related Links

Times and Time Zones

All times are in EDT time to prevent confusion due to time zone crossing. See the AWE55 flight status page for this flight to view local times or setup timezone preferences in your user account.

Time Position Orientation Groundspeed Altitude Reporting Facility
EDT Latitude Longitude Course Direction KTS MPH feet Rate Location/Type
Sun 09:51:04 PM 33.4333 -112.0333 20° North 149 171 1,700  Level Phoenix TRACON
Sun 09:52:40 PM 33.4333 -112.1167 270° West 218 251 3,900 1,576 Climbing Phoenix TRACON
Sun 09:53:00 PM 33.7757 -111.8525 15° North  Level FlightAware Approximate
Sun 09:53:02 PM 33.4381 -112.1483 280° West 221 254 4,800  Level Albuquerque Center
Sun 09:54:00 PM 33.8903 -111.8033 20° North  Level FlightAware Approximate
Sun 09:54:03 PM 33.4869 -112.1986 319° Northwest 279 321 6,700  Level Albuquerque Center
Sun 09:55:00 PM 34.0047 -111.7532 20° North  Level FlightAware Approximate
Sun 09:55:04 PM 33.5558 -112.1444 33° Northeast 297 342 9,500  Level Albuquerque Center
Sun 09:56:00 PM 34.1193 -111.7033 20° North  Level FlightAware Approximate
Sun 09:56:06 PM 33.6292 -112.0831 35° Northeast 325 374 11,100  Level Albuquerque Center
Sun 09:57:07 PM 33.7136 -112.0128 35° Northeast 367 422 12,800 2,164 Climbing Albuquerque Center
Sun 09:58:08 PM 33.8019 -111.9383 35° Northeast 387 445 15,500 2,115 Climbing Albuquerque Center
Sun 09:59:09 PM 33.8928 -111.8628 35° Northeast 394 453 17,100 1,918 Climbing Albuquerque Center
Sun 10:00:10 PM 34.0075 -111.7658 35° Northeast 422 486 19,400 2,098 Climbing Albuquerque Center
Sun 10:01:12 PM 34.1164 -111.7014 26° Northeast 435 501 21,400 1,561 Climbing Albuquerque Center
Sun 10:02:13 PM 34.2239 -111.6614 17° North 442 509 22,600 1,426 Climbing Albuquerque Center
Sun 10:03:14 PM 34.3433 -111.6142 18° North 450 518 24,300 1,475 Climbing Albuquerque Center
Sun 10:04:15 PM 34.4647 -111.5664 18° North 455 524 25,600 1,377 Climbing Albuquerque Center
Sun 10:05:16 PM 34.5775 -111.4858 30° Northeast 473 544 27,100 1,415 Climbing Albuquerque Center
Sun 10:06:18 PM 34.6664 -111.3603 49° Northeast 488 562 28,500 1,415 Climbing Albuquerque Center
Sun 10:07:19 PM 34.7722 -111.2086 50° Northeast 490 564 30,000 1,328 Climbing Albuquerque Center
Sun 10:08:20 PM 34.8622 -111.0811 49° Northeast 494 568 31,200 1,230 Climbing Albuquerque Center
Sun 10:09:21 PM 34.9514 -110.9525 50° Northeast 496 571 32,500 885 Climbing Albuquerque Center
Sun 10:10:22 PM 35.0433 -110.8261 48° Northeast 499 574 33,000 246 Climbing Albuquerque Center
Sun 10:11:23 PM 35.1483 -110.7339 36° Northeast 487 560 33,000 197 Level Albuquerque Center
Sun 10:12:24 PM 35.2825 -110.6497 27° Northeast 482 555 33,400 780 Climbing Albuquerque Center
Sun 10:13:26 PM 35.3958 -110.5761 28° Northeast 481 554 34,600 780 Climbing Albuquerque Center
Sun 10:14:27 PM 35.5264 -110.4897 28° Northeast 478 550 35,000 197 Climbing Albuquerque Center
Sun 10:15:28 PM 35.6381 -110.4142 29° Northeast 477 549 35,000  Level Albuquerque Center
Sun 10:16:29 PM 35.7503 -110.3419 28° Northeast 475 547 35,000  Level Albuquerque Center
Sun 10:17:30 PM 35.8803 -110.2544 29° Northeast 475 547 35,000  Level Albuquerque Center
Sun 10:18:08 PM 35.9539 -110.2058 28° Northeast 476 548 35,000  Level Denver Center
Sun 10:19:09 PM 36.0697 -110.1281 28° Northeast 475 547 35,000  Level Denver Center
Sun 10:20:11 PM 36.1781 -110.0550 29° Northeast 475 547 35,000  Level Denver Center
Sun 10:21:13 PM 36.3047 -109.9586 32° Northeast 480 552 35,000  Level Denver Center
Sun 10:22:15 PM 36.3944 -109.8383 47° Northeast 494 568 35,000  Level Denver Center
Sun 10:23:16 PM 36.4939 -109.6925 50° Northeast 495 570 35,000  Level Denver Center
Sun 10:24:18 PM 36.5794 -109.5661 50° Northeast 496 571 35,000 49 Level Denver Center
Sun 10:25:19 PM 36.6647 -109.4406 50° Northeast 494 568 35,100 49 Climbing Denver Center
Sun 10:26:21 PM 36.7642 -109.2939 50° Northeast 495 570 35,100 -48 Level Denver Center
Sun 10:27:23 PM 36.8472 -109.1700 50° Northeast 488 562 35,000 -98 Descending Denver Center
Sun 10:28:24 PM 36.9453 -109.0258 50° Northeast 486 559 34,900  Descending Denver Center
Sun 10:29:26 PM 37.0281 -108.9008 50° Northeast 486 559 35,000 98 Climbing Denver Center
Sun 10:30:27 PM 37.1097 -108.7769 50° Northeast 483 556 35,100 439 Climbing Denver Center
Sun 10:31:29 PM 37.2056 -108.6339 50° Northeast 479 551 35,900 726 Climbing Denver Center
Sun 10:32:31 PM 37.2886 -108.5081 50° Northeast 483 556 36,600 537 Climbing Denver Center
Sun 10:33:32 PM 37.3847 -108.3594 51° Northeast 489 563 37,000 195 Climbing Denver Center
Sun 10:34:34 PM 37.4656 -108.2358 50° Northeast 478 550 37,000  Level Denver Center
Sun 10:35:35 PM 37.5472 -108.1094 51° Northeast 483 556 37,000  Level Denver Center
Sun 10:36:37 PM 37.6414 -107.9619 51° Northeast 484 557 37,000  Level Denver Center
Sun 10:37:38 PM 37.7242 -107.8392 50° Northeast 480 552 37,000  Level Denver Center
Sun 10:38:40 PM 37.8172 -107.6911 51° Northeast 481 554 37,000  Level Denver Center
Sun 10:39:42 PM 37.8972 -107.5675 51° Northeast 477 549 37,000 49 Level Denver Center
Sun 10:40:43 PM 37.9786 -107.4417 51° Northeast 481 554 37,100  Climbing Denver Center
Sun 10:41:45 PM 38.0708 -107.2956 51° Northeast 475 547 37,000 -49 Descending Denver Center
Sun 10:42:46 PM 38.1494 -107.1711 51° Northeast 472 543 37,000  Level Denver Center
Sun 10:43:47 PM 38.2325 -107.0422 51° Northeast 470 541 37,000  Level Denver Center
Sun 10:44:49 PM 38.3133 -106.9111 52° Northeast 471 542 37,000  Level Denver Center
Sun 10:45:50 PM 38.3947 -106.7814 51° Northeast 470 541 37,000  Level Denver Center
Sun 10:46:52 PM 38.4769 -106.6511 51° Northeast 472 543 37,000 49 Level Denver Center
Sun 10:47:53 PM 38.5750 -106.4922 52° Northeast 476 548 37,100  Climbing Denver Center
Sun 10:48:55 PM 38.6558 -106.3600 52° Northeast 474 545 37,000 -49 Descending Denver Center
Sun 10:49:56 PM 38.7381 -106.2278 51° Northeast 477 549 37,000 -49 Level Denver Center
Sun 10:50:58 PM 38.8286 -106.0792 52° Northeast 475 547 36,900 49 Descending Denver Center
Sun 10:51:59 PM 38.9114 -105.9447 52° Northeast 480 552 37,100 49 Climbing Denver Center
Sun 10:53:01 PM 38.9925 -105.8114 52° Northeast 477 549 37,000 -49 Descending Denver Center
Sun 10:54:02 PM 39.0742 -105.6758 52° Northeast 478 550 37,000  Level Denver Center
Sun 10:55:03 PM 39.1547 -105.5406 52° Northeast 478 550 37,000  Level Denver Center
Sun 10:56:05 PM 39.2375 -105.4042 52° Northeast 482 555 37,000 49 Level Denver Center
Sun 10:57:06 PM 39.3181 -105.2717 52° Northeast 469 540 37,100  Climbing Denver Center
Sun 10:58:08 PM 39.3975 -105.1364 53° Northeast 464 534 37,000 -49 Descending Denver Center
Sun 10:59:09 PM 39.4758 -105.0042 52° Northeast 468 539 37,000  Level Denver Center
Sun 11:00:11 PM 39.5700 -104.8422 53° Northeast 466 536 37,000  Level Denver Center
Sun 11:01:12 PM 39.6464 -104.7117 53° Northeast 472 543 37,000  Level Denver Center
Sun 11:02:13 PM 39.7189 -104.5919 52° Northeast 462 532 37,000  Level Denver Center
Sun 11:03:15 PM 39.7975 -104.4547 53° Northeast 469 540 37,000  Level Denver Center
Sun 11:04:16 PM 39.8906 -104.2922 53° Northeast 467 537 37,000 49 Level Denver Center
Sun 11:05:18 PM 39.9686 -104.1542 54° Northeast 472 543 37,100 49 Climbing Denver Center
Sun 11:06:19 PM 40.0458 -104.0194 53° Northeast 462 532 37,100 -49 Level Denver Center
Sun 11:07:20 PM 40.1219 -103.8850 53° Northeast 454 522 37,000 -98 Descending Denver Center
Sun 11:08:22 PM 40.1989 -103.7522 53° Northeast 458 527 36,900  Descending Denver Center
Sun 11:09:23 PM 40.2733 -103.6247 53° Northeast 441 507 37,000 49 Climbing Denver Center
Sun 11:10:24 PM 40.3489 -103.4889 54° Northeast 460 529 37,000  Level Denver Center
Sun 11:11:25 PM 40.4239 -103.3553 54° Northeast 457 526 37,000  Level Denver Center
Sun 11:12:27 PM 40.4992 -103.2206 54° Northeast 459 528 37,000  Level Denver Center
Sun 11:13:28 PM 40.5911 -103.0572 53° Northeast 464 534 37,000  Level Denver Center
Sun 11:14:29 PM 40.6675 -102.9181 54° Northeast 468 539 37,000 49 Level Denver Center
Sun 11:15:31 PM 40.7469 -102.7739 54° Northeast 473 544 37,100  Climbing Denver Center
Sun 11:16:32 PM 40.8206 -102.6408 54° Northeast 470 541 37,000 -49 Descending Denver Center
Sun 11:17:33 PM 40.8942 -102.5075 54° Northeast 470 541 37,000  Level Denver Center
Sun 11:18:35 PM 40.9783 -102.3508 55° Northeast 469 540 37,000  Level Denver Center
Sun 11:19:36 PM 41.0500 -102.2178 54° Northeast 464 534 37,000  Level Denver Center
Sun 11:20:37 PM 41.1347 -102.0625 54° Northeast 464 534 37,000  Level Denver Center
Sun 11:21:39 PM 41.2058 -101.9297 55° Northeast 461 531 37,000  Level Denver Center
Sun 11:22:40 PM 41.2778 -101.7975 54° Northeast 460 529 37,000  Level Denver Center
Sun 11:23:41 PM 41.3597 -101.6419 55° Northeast 458 527 37,000  Level Denver Center
Sun 11:24:43 PM 41.4319 -101.5075 54° Northeast 463 533 37,000  Level Denver Center
Sun 11:25:44 PM 41.5019 -101.3733 55° Northeast 460 529 37,000  Level Denver Center
Sun 11:26:45 PM 41.5858 -101.2153 55° Northeast 463 533 37,000  Level Denver Center
Sun 11:27:47 PM 41.6567 -101.0783 55° Northeast 465 535 37,000  Level Denver Center
Sun 11:28:48 PM 41.7161 -100.9656 55° Northeast 464 534 37,000  Level Denver Center
Sun 11:29:49 PM 41.8083 -100.7847 56° Northeast 461 531 37,000  Level Denver Center
Sun 11:30:50 PM 41.8794 -100.6472 55° Northeast 467 537 37,000  Level Denver Center
Sun 11:31:52 PM 41.9628 -100.4853 55° Northeast 470 541 37,000  Level Denver Center
Sun 11:32:53 PM 42.0333 -100.3472 55° Northeast 469 540 37,000  Level Denver Center
Sun 11:33:54 PM 42.1033 -100.2050 56° Northeast 474 545 37,000  Level Denver Center
Sun 11:34:55 PM 42.1856 -100.0450 55° Northeast 470 541 37,000  Level Denver Center
Sun 11:35:57 PM 42.2558 -99.9075 55° Northeast 467 537 37,000  Level Denver Center
Sun 11:36:58 PM 42.3356 -99.7433 57° Northeast 467 537 37,000  Level Denver Center
Sun 11:37:59 PM 42.3986 -99.6183 56° Northeast 469 540 37,000  Level Denver Center
Sun 11:39:00 PM 42.4719 -99.4706 56° Northeast 471 542 37,000  Level Denver Center
Sun 11:40:07 PM 42.5594 -99.2947 56° Northeast 469 540 37,000  Level Minneapolis Center
Sun 11:41:08 PM 42.6322 -99.1450 57° Northeast 473 544 37,000  Level Minneapolis Center
Sun 11:42:09 PM 42.7058 -98.9944 56° Northeast 476 548 37,000  Level Minneapolis Center
Sun 11:43:10 PM 42.7786 -98.8453 56° Northeast 474 545 37,000  Level Minneapolis Center
Sun 11:44:11 PM 42.8508 -98.6953 57° Northeast 474 545 37,000  Level Minneapolis Center
Sun 11:45:12 PM 42.9297 -98.5292 57° Northeast 475 547 37,000  Level Minneapolis Center
Sun 11:46:12 PM 43.0022 -98.3789 57° Northeast 476 548 37,000  Level Minneapolis Center
Sun 11:47:13 PM 43.0739 -98.2269 57° Northeast 476 548 37,000  Level Minneapolis Center
Sun 11:48:14 PM 43.1461 -98.0744 57° Northeast 478 550 37,000  Level Minneapolis Center
Sun 11:49:15 PM 43.2178 -97.9206 57° Northeast 480 552 37,000  Level Minneapolis Center
Sun 11:50:16 PM 43.2892 -97.7689 57° Northeast 476 548 37,000  Level Minneapolis Center
Sun 11:51:16 PM 43.3611 -97.6161 57° Northeast 478 550 37,000  Level Minneapolis Center
Sun 11:52:17 PM 43.4319 -97.4622 58° Northeast 477 549 37,000  Level Minneapolis Center
Sun 11:53:18 PM 43.5033 -97.3061 58° Northeast 482 555 37,000  Level Minneapolis Center
Sun 11:54:19 PM 43.5747 -97.1514 57° Northeast 481 554 37,000  Level Minneapolis Center
Sun 11:55:19 PM 43.6456 -96.9953 58° Northeast 482 555 37,000  Level Minneapolis Center
Sun 11:56:20 PM 43.7167 -96.8386 58° Northeast 482 555 37,000  Level Minneapolis Center
Sun 11:57:21 PM 43.8008 -96.6506 58° Northeast 482 555 37,000  Level Minneapolis Center
Sun 11:58:22 PM 43.8714 -96.4953 58° Northeast 481 554 37,000  Level Minneapolis Center
Sun 11:59:22 PM 43.9400 -96.3389 59° Northeast 480 552 37,000  Level Minneapolis Center
Mon 12:00:23 AM 44.0089 -96.1839 58° Northeast 479 551 37,000  Level Minneapolis Center
Mon 12:01:24 AM 44.0769 -96.0303 58° Northeast 480 552 37,000 -148 Level Minneapolis Center
Mon 12:02:25 AM 44.1447 -95.8764 58° Northeast 477 549 36,700 -1,388 Descending Minneapolis Center
Mon 12:03:25 AM 44.2136 -95.7203 58° Northeast 477 549 34,200 -2,678 Descending Minneapolis Center
Mon 12:04:26 AM 44.2828 -95.5594 59° Northeast 484 557 31,300 -2,803 Descending Minneapolis Center
Mon 12:05:27 AM 44.3522 -95.3983 59° Northeast 487 560 28,500 -2,826 Descending Minneapolis Center
Mon 12:06:27 AM 44.4342 -95.2089 59° Northeast 479 551 25,600 -2,727 Descending Minneapolis Center
Mon 12:07:28 AM 44.4900 -95.0481 64° Northeast 468 539 23,000 -2,508 Descending Minneapolis Center
Mon 12:08:29 AM 44.5269 -94.8769 73° East 461 531 20,500 -2,479 Descending Minneapolis Center
Mon 12:09:29 AM 44.5650 -94.7142 72° East 448 516 18,000 -2,281 Descending Minneapolis Center
Mon 12:10:30 AM 44.5989 -94.5733 71° East 433 498 15,900 -2,182 Descending Minneapolis Center
Mon 12:11:30 AM 44.6328 -94.4222 72° East 406 467 13,600 -2,033 Descending Minneapolis Center
Mon 12:12:31 AM 44.6653 -94.2808 72° East 382 440 11,800 -1,279 Descending Minneapolis Center
Mon 12:13:32 AM 44.6947 -94.1533 72° East 340 391 11,000 -446 Descending Minneapolis Center
Mon 12:14:32 AM 44.7194 -94.0425 73° East 300 345 10,900 -595 Descending Minneapolis Center
Mon 12:15:33 AM 44.7567 -93.9364 64° Northeast 301 346 9,800 -1,377 Descending Minneapolis Center
Mon 12:16:34 AM 44.7978 -93.8147 65° Northeast 285 328 8,100 -1,388 Descending Minneapolis Center
Mon 12:17:34 AM 44.8306 -93.7169 65° Northeast 278 320 7,000 -1,041 Descending Minneapolis Center
Mon 12:18:35 AM 44.8614 -93.6225 65° Northeast 264 304 6,000 -1,091 Descending Minneapolis Center
Mon 12:19:35 AM 44.8925 -93.5300 65° Northeast 260 299 4,800 -893 Descending Minneapolis Center
Mon 12:20:36 AM 44.9172 -93.4547 65° Northeast 215 247 4,200 -639 Descending Minneapolis Center
Mon 12:21:37 AM 44.9389 -93.3889 65° Northeast 186 214 3,500 -744 Descending Minneapolis Center
Mon 12:22:37 AM 44.9378 -93.3256 91° East 173 199 2,700 -893 Descending Minneapolis Center
Mon 12:23:38 AM 44.9147 -93.2719 121° Southeast 161 185 1,700 -843 Descending Minneapolis Center
Mon 12:24:38 AM 44.8953 -93.2261 121° Southeast 139 160 1,000 -700 Descending Minneapolis Center

Login

Don't have an account? Register now (free) for customized features, flight alerts, and more!